Townley, Indiana
Current Conditions -  °F | °C
As of 5:54 PM on Saturday 20 Dec 2014 (Local Time) from KFWA Reporting Station
Overcast Overcast  
Wind Chill: 32°   Ceiling: 2300
Heat Index: 32°   Visibility: 8mi
Dew Point: 26°   Wind: 3mph
Humidity: 79%   Direction: 260°W
Pressure: 30.28"   Gusts: NA
Location:  40.9863°N, 84.8797°W
Report Text: KFWA 202254Z 26003KT 8SM BKN023 OVC027 00/M03 A3028 RMK AO2 SNE06 SLP264 P0000 T00001033
Loading
Personal Weather Stations






























Interactive Weather Map New forecast layout! Learn more

10-Day Weather Forecast

Advertisements
Track Severe Weather on mobile